sensor_id;sensor_type;location;lat;lon;timestamp;pressure;altitude;pressure_sealevel;temperature;humidity
4598;BME280;62772;48.646;8.906;2022-08-19T00:03:39;95923.94;;;18.45;93.56
4598;BME280;62772;48.646;8.906;2022-08-19T00:08:40;95917.00;;;18.48;93.60
4598;BME280;62772;48.646;8.906;2022-08-19T00:13:43;95916.25;;;18.51;92.98
4598;BME280;62772;48.646;8.906;2022-08-19T00:18:46;95922.41;;;18.48;93.27
4598;BME280;62772;48.646;8.906;2022-08-19T00:23:47;95921.28;;;18.53;92.23
4598;BME280;62772;48.646;8.906;2022-08-19T00:28:50;95912.81;;;18.54;92.78
4598;BME280;62772;48.646;8.906;2022-08-19T00:33:51;95908.97;;;18.55;92.91
4598;BME280;62772;48.646;8.906;2022-08-19T00:38:52;95884.38;;;18.67;91.84
4598;BME280;62772;48.646;8.906;2022-08-19T00:44:06;95889.84;;;18.78;91.84
4598;BME280;62772;48.646;8.906;2022-08-19T00:49:11;95899.84;;;18.33;96.49
4598;BME280;62772;48.646;8.906;2022-08-19T00:54:18;95905.16;;;18.26;97.98
4598;BME280;62772;48.646;8.906;2022-08-19T00:59:21;95910.31;;;18.35;96.64
4598;BME280;62772;48.646;8.906;2022-08-19T01:04:22;95912.53;;;18.29;96.81
4598;BME280;62772;48.646;8.906;2022-08-19T01:09:23;95911.75;;;18.25;98.40
4598;BME280;62772;48.646;8.906;2022-08-19T01:14:27;95908.09;;;18.10;98.80
4598;BME280;62772;48.646;8.906;2022-08-19T01:19:29;95896.50;;;18.09;100.00
4598;BME280;62772;48.646;8.906;2022-08-19T01:24:34;95897.00;;;18.19;100.00
4598;BME280;62772;48.646;8.906;2022-08-19T01:29:38;95895.97;;;17.97;100.00
4598;BME280;62772;48.646;8.906;2022-08-19T01:34:39;95894.63;;;18.13;100.00
4598;BME280;62772;48.646;8.906;2022-08-19T01:39:42;95891.13;;;17.83;100.00
4598;BME280;62772;48.646;8.906;2022-08-19T01:44:43;95892.91;;;17.68;100.00
4598;BME280;62772;48.646;8.906;2022-08-19T01:49:44;95879.03;;;17.69;100.00
4598;BME280;62772;48.646;8.906;2022-08-19T01:54:47;95876.50;;;17.53;100.00
4598;BME280;62772;48.646;8.906;2022-08-19T01:59:48;95882.59;;;17.47;100.00
4598;BME280;62772;48.646;8.906;2022-08-19T02:04:48;95889.91;;;17.46;100.00
4598;BME280;62772;48.646;8.906;2022-08-19T02:09:52;95893.03;;;17.48;100.00
4598;BME280;62772;48.646;8.906;2022-08-19T02:14:52;95891.41;;;17.44;100.00
4598;BME280;62772;48.646;8.906;2022-08-19T02:19:53;95882.44;;;17.36;100.00
4598;BME280;62772;48.646;8.906;2022-08-19T02:24:56;95881.84;;;17.50;100.00
4598;BME280;62772;48.646;8.906;2022-08-19T02:29:57;95878.56;;;17.64;100.00
4598;BME280;62772;48.646;8.906;2022-08-19T02:34:58;95878.88;;;17.58;100.00
4598;BME280;62772;48.646;8.906;2022-08-19T02:40:02;95873.53;;;17.62;100.00
4598;BME280;62772;48.646;8.906;2022-08-19T02:45:04;95864.34;;;17.40;100.00
4598;BME280;62772;48.646;8.906;2022-08-19T02:50:06;95862.34;;;17.33;100.00
4598;BME280;62772;48.646;8.906;2022-08-19T02:55:10;95876.34;;;17.43;100.00
4598;BME280;62772;48.646;8.906;2022-08-19T03:00:12;95878.16;;;17.35;100.00
4598;BME280;62772;48.646;8.906;2022-08-19T03:05:13;95881.59;;;17.32;100.00
4598;BME280;62772;48.646;8.906;2022-08-19T03:10:16;95880.50;;;17.36;100.00
4598;BME280;62772;48.646;8.906;2022-08-19T03:15:17;95878.22;;;17.38;100.00
4598;BME280;62772;48.646;8.906;2022-08-19T03:20:18;95886.78;;;17.44;100.00
4598;BME280;62772;48.646;8.906;2022-08-19T03:25:21;95886.22;;;17.31;100.00
4598;BME280;62772;48.646;8.906;2022-08-19T03:30:21;95868.81;;;17.29;100.00
4598;BME280;62772;48.646;8.906;2022-08-19T03:35:22;95870.97;;;17.43;100.00
4598;BME280;62772;48.646;8.906;2022-08-19T03:40:26;95872.22;;;17.22;100.00
4598;BME280;62772;48.646;8.906;2022-08-19T03:45:26;95863.00;;;17.53;100.00
4598;BME280;62772;48.646;8.906;2022-08-19T03:50:27;95858.66;;;17.45;100.00
4598;BME280;62772;48.646;8.906;2022-08-19T03:55:31;95871.97;;;17.31;100.00
4598;BME280;62772;48.646;8.906;2022-08-19T04:00:31;95897.13;;;17.12;100.00
4598;BME280;62772;48.646;8.906;2022-08-19T04:05:33;95893.19;;;17.32;100.00
4598;BME280;62772;48.646;8.906;2022-08-19T04:10:38;95891.41;;;17.17;100.00
4598;BME280;62772;48.646;8.906;2022-08-19T04:15:40;95892.38;;;17.05;100.00
4598;BME280;62772;48.646;8.906;2022-08-19T04:20:42;95896.97;;;17.28;100.00
4598;BME280;62772;48.646;8.906;2022-08-19T04:25:46;95900.19;;;17.10;100.00
4598;BME280;62772;48.646;8.906;2022-08-19T04:30:49;95904.25;;;17.00;100.00
4598;BME280;62772;48.646;8.906;2022-08-19T04:35:51;95896.91;;;16.97;100.00
4598;BME280;62772;48.646;8.906;2022-08-19T04:40:55;95893.06;;;16.98;100.00
4598;BME280;62772;48.646;8.906;2022-08-19T04:46:14;95901.41;;;17.16;100.00
4598;BME280;62772;48.646;8.906;2022-08-19T04:51:15;95900.00;;;17.53;100.00
4598;BME280;62772;48.646;8.906;2022-08-19T04:56:20;95904.06;;;17.39;100.00
4598;BME280;62772;48.646;8.906;2022-08-19T05:01:24;95901.25;;;17.59;100.00
4598;BME280;62772;48.646;8.906;2022-08-19T05:06:26;95921.16;;;17.20;100.00
4598;BME280;62772;48.646;8.906;2022-08-19T05:11:33;95927.38;;;17.25;100.00
4598;BME280;62772;48.646;8.906;2022-08-19T05:16:35;95928.63;;;17.31;100.00
4598;BME280;62772;48.646;8.906;2022-08-19T05:21:36;95930.91;;;17.29;100.00
4598;BME280;62772;48.646;8.906;2022-08-19T05:26:58;95951.09;;;17.65;100.00
4598;BME280;62772;48.646;8.906;2022-08-19T05:31:59;95964.13;;;17.33;100.00
4598;BME280;62772;48.646;8.906;2022-08-19T05:37:01;95980.50;;;17.44;100.00
4598;BME280;62772;48.646;8.906;2022-08-19T05:42:06;95988.50;;;17.63;100.00
4598;BME280;62772;48.646;8.906;2022-08-19T05:47:07;95995.78;;;17.36;100.00
4598;BME280;62772;48.646;8.906;2022-08-19T05:52:10;95986.84;;;17.32;100.00
4598;BME280;62772;48.646;8.906;2022-08-19T05:57:14;95982.31;;;17.63;100.00
4598;BME280;62772;48.646;8.906;2022-08-19T06:02:15;95980.06;;;17.41;100.00
4598;BME280;62772;48.646;8.906;2022-08-19T06:07:16;95979.13;;;17.30;100.00
4598;BME280;62772;48.646;8.906;2022-08-19T06:12:20;95985.72;;;17.33;100.00
4598;BME280;62772;48.646;8.906;2022-08-19T06:17:32;95993.91;;;17.40;100.00
4598;BME280;62772;48.646;8.906;2022-08-19T06:22:37;95985.25;;;17.54;100.00
4598;BME280;62772;48.646;8.906;2022-08-19T06:27:41;95990.31;;;17.55;100.00
4598;BME280;62772;48.646;8.906;2022-08-19T06:32:42;95983.13;;;17.67;100.00
4598;BME280;62772;48.646;8.906;2022-08-19T06:37:43;95974.38;;;17.47;100.00
4598;BME280;62772;48.646;8.906;2022-08-19T06:42:47;95984.81;;;17.48;100.00
4598;BME280;62772;48.646;8.906;2022-08-19T06:47:48;95991.72;;;17.46;100.00
4598;BME280;62772;48.646;8.906;2022-08-19T06:52:49;95991.38;;;17.51;100.00
4598;BME280;62772;48.646;8.906;2022-08-19T06:57:52;95975.50;;;17.72;100.00
4598;BME280;62772;48.646;8.906;2022-08-19T07:02:53;95985.88;;;17.70;100.00
4598;BME280;62772;48.646;8.906;2022-08-19T07:07:54;95997.16;;;17.76;100.00
4598;BME280;62772;48.646;8.906;2022-08-19T07:12:57;95999.59;;;17.85;100.00
4598;BME280;62772;48.646;8.906;2022-08-19T07:17:58;95999.44;;;18.01;100.00
4598;BME280;62772;48.646;8.906;2022-08-19T07:22:59;96005.28;;;18.03;100.00
4598;BME280;62772;48.646;8.906;2022-08-19T07:28:02;96009.53;;;18.04;100.00
4598;BME280;62772;48.646;8.906;2022-08-19T07:33:03;96008.34;;;18.01;100.00
4598;BME280;62772;48.646;8.906;2022-08-19T07:38:04;96005.97;;;17.96;100.00
4598;BME280;62772;48.646;8.906;2022-08-19T07:43:08;96009.28;;;18.12;100.00
4598;BME280;62772;48.646;8.906;2022-08-19T07:48:08;96012.28;;;18.38;100.00
4598;BME280;62772;48.646;8.906;2022-08-19T07:53:09;96018.44;;;18.35;100.00
4598;BME280;62772;48.646;8.906;2022-08-19T07:58:17;96010.13;;;18.51;99.29
4598;BME280;62772;48.646;8.906;2022-08-19T08:03:21;96004.88;;;18.31;100.00
4598;BME280;62772;48.646;8.906;2022-08-19T08:08:42;96003.16;;;18.49;100.00
4598;BME280;62772;48.646;8.906;2022-08-19T08:14:03;96007.69;;;18.76;98.01
4598;BME280;62772;48.646;8.906;2022-08-19T08:19:05;96019.66;;;18.75;98.58
4598;BME280;62772;48.646;8.906;2022-08-19T08:24:06;96015.75;;;18.72;98.62
4598;BME280;62772;48.646;8.906;2022-08-19T08:29:09;96008.66;;;18.57;99.77
4598;BME280;62772;48.646;8.906;2022-08-19T08:34:12;96021.31;;;18.49;100.00
4598;BME280;62772;48.646;8.906;2022-08-19T08:39:16;96018.78;;;18.63;99.91
4598;BME280;62772;48.646;8.906;2022-08-19T08:44:22;96020.03;;;18.73;100.00
4598;BME280;62772;48.646;8.906;2022-08-19T08:49:28;96020.44;;;18.75;99.04
4598;BME280;62772;48.646;8.906;2022-08-19T08:54:35;96028.69;;;18.86;98.41
4598;BME280;62772;48.646;8.906;2022-08-19T08:59:41;96039.59;;;18.93;97.89
4598;BME280;62772;48.646;8.906;2022-08-19T09:04:43;96023.69;;;18.88;98.01
4598;BME280;62772;48.646;8.906;2022-08-19T09:09:48;96030.69;;;18.93;98.24
4598;BME280;62772;48.646;8.906;2022-08-19T09:14:55;96042.34;;;18.97;97.44
4598;BME280;62772;48.646;8.906;2022-08-19T09:20:00;96048.88;;;18.92;97.44
4598;BME280;62772;48.646;8.906;2022-08-19T09:25:07;96042.75;;;18.99;98.31
4598;BME280;62772;48.646;8.906;2022-08-19T09:30:15;96046.66;;;19.01;97.79
4598;BME280;62772;48.646;8.906;2022-08-19T09:35:17;96050.13;;;19.02;97.99
4598;BME280;62772;48.646;8.906;2022-08-19T09:40:18;96048.66;;;19.12;96.92
4598;BME280;62772;48.646;8.906;2022-08-19T09:45:22;96055.25;;;19.11;96.84
4598;BME280;62772;48.646;8.906;2022-08-19T09:50:22;96057.75;;;18.93;97.42
4598;BME280;62772;48.646;8.906;2022-08-19T09:55:25;96055.50;;;18.98;95.41
4598;BME280;62772;48.646;8.906;2022-08-19T10:00:28;96067.59;;;19.08;95.66
4598;BME280;62772;48.646;8.906;2022-08-19T10:05:29;96060.22;;;19.09;95.85
4598;BME280;62772;48.646;8.906;2022-08-19T10:10:49;96065.28;;;19.10;94.84
4598;BME280;62772;48.646;8.906;2022-08-19T10:15:54;96061.88;;;19.17;95.82
4598;BME280;62772;48.646;8.906;2022-08-19T10:21:05;96066.00;;;19.07;95.31
4598;BME280;62772;48.646;8.906;2022-08-19T10:26:09;96068.88;;;19.21;94.26
4598;BME280;62772;48.646;8.906;2022-08-19T10:31:16;96063.88;;;19.24;94.69
4598;BME280;62772;48.646;8.906;2022-08-19T10:36:20;96068.78;;;19.52;91.14
4598;BME280;62772;48.646;8.906;2022-08-19T10:41:24;96062.59;;;19.55;91.70
4598;BME280;62772;48.646;8.906;2022-08-19T10:46:29;96049.13;;;19.66;88.04
4598;BME280;62772;48.646;8.906;2022-08-19T10:51:33;96046.81;;;19.64;88.63
4598;BME280;62772;48.646;8.906;2022-08-19T10:56:52;96051.91;;;19.73;87.64
4598;BME280;62772;48.646;8.906;2022-08-19T11:01:59;96038.06;;;19.82;87.15
4598;BME280;62772;48.646;8.906;2022-08-19T11:07:01;96040.84;;;19.92;86.58
4598;BME280;62772;48.646;8.906;2022-08-19T11:12:03;96037.69;;;19.83;85.71
4598;BME280;62772;48.646;8.906;2022-08-19T11:17:06;96039.31;;;19.95;85.43
4598;BME280;62772;48.646;8.906;2022-08-19T11:22:08;96038.94;;;19.97;86.63
4598;BME280;62772;48.646;8.906;2022-08-19T11:27:10;96038.63;;;20.09;84.78
4598;BME280;62772;48.646;8.906;2022-08-19T11:32:13;96044.03;;;20.09;82.84
4598;BME280;62772;48.646;8.906;2022-08-19T11:37:15;96046.03;;;20.19;82.16
4598;BME280;62772;48.646;8.906;2022-08-19T11:42:17;96052.25;;;20.23;83.49
4598;BME280;62772;48.646;8.906;2022-08-19T11:47:39;96041.00;;;20.14;82.67
4598;BME280;62772;48.646;8.906;2022-08-19T11:52:40;96045.31;;;20.29;83.40
4598;BME280;62772;48.646;8.906;2022-08-19T11:57:41;96049.22;;;20.36;82.43
4598;BME280;62772;48.646;8.906;2022-08-19T12:02:45;96038.44;;;20.50;81.32
4598;BME280;62772;48.646;8.906;2022-08-19T12:07:46;96043.56;;;20.66;81.65
4598;BME280;62772;48.646;8.906;2022-08-19T12:12:47;96033.13;;;20.72;79.41
4598;BME280;62772;48.646;8.906;2022-08-19T12:17:50;96031.22;;;20.83;77.85
4598;BME280;62772;48.646;8.906;2022-08-19T12:22:52;96026.59;;;20.98;78.90
4598;BME280;62772;48.646;8.906;2022-08-19T12:27:53;96024.69;;;21.16;75.68
4598;BME280;62772;48.646;8.906;2022-08-19T12:32:56;96030.53;;;21.33;76.57
4598;BME280;62772;48.646;8.906;2022-08-19T12:37:57;96030.19;;;21.67;70.20
4598;BME280;62772;48.646;8.906;2022-08-19T12:42:58;96022.78;;;21.92;67.11
4598;BME280;62772;48.646;8.906;2022-08-19T12:48:02;96025.50;;;21.92;67.72
4598;BME280;62772;48.646;8.906;2022-08-19T12:53:03;96025.47;;;22.03;65.52
4598;BME280;62772;48.646;8.906;2022-08-19T12:58:04;96023.88;;;22.09;61.47
4598;BME280;62772;48.646;8.906;2022-08-19T13:03:07;96034.75;;;22.20;64.72
4598;BME280;62772;48.646;8.906;2022-08-19T13:08:07;96042.13;;;22.34;62.60
4598;BME280;62772;48.646;8.906;2022-08-19T13:13:09;96036.63;;;22.49;63.11
4598;BME280;62772;48.646;8.906;2022-08-19T13:18:15;96039.34;;;22.52;62.87
4598;BME280;62772;48.646;8.906;2022-08-19T13:23:16;96045.22;;;22.40;63.51
4598;BME280;62772;48.646;8.906;2022-08-19T13:28:17;96033.53;;;22.43;66.60
4598;BME280;62772;48.646;8.906;2022-08-19T13:33:23;96037.44;;;22.45;67.85
4598;BME280;62772;48.646;8.906;2022-08-19T13:38:27;96046.41;;;22.32;65.93
4598;BME280;62772;48.646;8.906;2022-08-19T13:43:28;96048.69;;;22.48;68.05
4598;BME280;62772;48.646;8.906;2022-08-19T13:48:32;96038.94;;;22.54;68.63
4598;BME280;62772;48.646;8.906;2022-08-19T13:53:33;96046.03;;;22.37;67.31
4598;BME280;62772;48.646;8.906;2022-08-19T13:58:34;96048.34;;;22.27;66.95
4598;BME280;62772;48.646;8.906;2022-08-19T14:03:37;96045.63;;;22.20;65.48
4598;BME280;62772;48.646;8.906;2022-08-19T14:08:38;96048.34;;;22.27;65.53
4598;BME280;62772;48.646;8.906;2022-08-19T14:13:42;96042.13;;;22.38;65.75
4598;BME280;62772;48.646;8.906;2022-08-19T14:18:45;96046.72;;;22.55;65.21
4598;BME280;62772;48.646;8.906;2022-08-19T14:23:49;96046.00;;;22.40;65.26
4598;BME280;62772;48.646;8.906;2022-08-19T14:28:50;96050.66;;;22.29;62.26
4598;BME280;62772;48.646;8.906;2022-08-19T14:33:55;96056.13;;;22.22;62.40
4598;BME280;62772;48.646;8.906;2022-08-19T14:38:56;96056.13;;;22.18;64.18
4598;BME280;62772;48.646;8.906;2022-08-19T14:43:57;96055.34;;;22.21;64.37
4598;BME280;62772;48.646;8.906;2022-08-19T14:49:01;96046.78;;;22.26;63.41
4598;BME280;62772;48.646;8.906;2022-08-19T14:54:02;96052.63;;;22.21;64.79
4598;BME280;62772;48.646;8.906;2022-08-19T14:59:03;96057.28;;;22.17;63.95
4598;BME280;62772;48.646;8.906;2022-08-19T15:04:06;96035.09;;;22.44;62.95
4598;BME280;62772;48.646;8.906;2022-08-19T15:09:08;96043.69;;;22.35;64.26
4598;BME280;62772;48.646;8.906;2022-08-19T15:14:09;96044.09;;;22.23;64.76
4598;BME280;62772;48.646;8.906;2022-08-19T15:19:15;96044.09;;;22.23;66.29
4598;BME280;62772;48.646;8.906;2022-08-19T15:24:16;96044.81;;;22.27;65.28
4598;BME280;62772;48.646;8.906;2022-08-19T15:29:17;96054.16;;;22.40;65.21
4598;BME280;62772;48.646;8.906;2022-08-19T15:34:21;96050.25;;;22.49;66.21
4598;BME280;62772;48.646;8.906;2022-08-19T15:39:22;96056.41;;;22.63;66.19
4598;BME280;62772;48.646;8.906;2022-08-19T15:44:23;96059.50;;;22.69;67.56
4598;BME280;62772;48.646;8.906;2022-08-19T15:49:26;96052.88;;;22.74;65.81
4598;BME280;62772;48.646;8.906;2022-08-19T15:54:27;96061.84;;;22.67;67.17
4598;BME280;62772;48.646;8.906;2022-08-19T15:59:28;96064.22;;;22.58;65.35
4598;BME280;62772;48.646;8.906;2022-08-19T16:04:50;96067.28;;;22.71;67.08
4598;BME280;62772;48.646;8.906;2022-08-19T16:10:10;96065.00;;;22.55;66.24
4598;BME280;62772;48.646;8.906;2022-08-19T16:15:11;96054.47;;;22.60;64.15
4598;BME280;62772;48.646;8.906;2022-08-19T16:20:17;96067.28;;;22.71;63.89
4598;BME280;62772;48.646;8.906;2022-08-19T16:25:19;96062.69;;;22.50;63.89
4598;BME280;62772;48.646;8.906;2022-08-19T16:30:20;96066.53;;;22.63;64.62
4598;BME280;62772;48.646;8.906;2022-08-19T16:35:24;96063.84;;;22.49;64.21
4598;BME280;62772;48.646;8.906;2022-08-19T16:40:24;96068.88;;;22.54;64.30
4598;BME280;62772;48.646;8.906;2022-08-19T16:45:25;96066.94;;;22.51;63.49
4598;BME280;62772;48.646;8.906;2022-08-19T16:50:28;96063.06;;;22.59;65.01
4598;BME280;62772;48.646;8.906;2022-08-19T16:55:29;96076.59;;;22.73;64.17
4598;BME280;62772;48.646;8.906;2022-08-19T17:00:30;96083.31;;;22.36;63.55
4598;BME280;62772;48.646;8.906;2022-08-19T17:05:33;96084.47;;;22.39;64.38
4598;BME280;62772;48.646;8.906;2022-08-19T17:10:34;96085.25;;;22.39;61.62
4598;BME280;62772;48.646;8.906;2022-08-19T17:15:37;96083.66;;;22.49;61.33
4598;BME280;62772;48.646;8.906;2022-08-19T17:20:42;96085.66;;;22.31;61.88
4598;BME280;62772;48.646;8.906;2022-08-19T17:25:43;96082.13;;;22.41;63.76
4598;BME280;62772;48.646;8.906;2022-08-19T17:30:49;96089.50;;;22.51;63.33
4598;BME280;62772;48.646;8.906;2022-08-19T17:35:53;96094.22;;;22.40;63.07
4598;BME280;62772;48.646;8.906;2022-08-19T17:40:53;96093.72;;;22.63;66.48
4598;BME280;62772;48.646;8.906;2022-08-19T17:46:01;96095.72;;;22.52;68.21
4598;BME280;62772;48.646;8.906;2022-08-19T17:51:15;96092.59;;;22.53;67.77
4598;BME280;62772;48.646;8.906;2022-08-19T17:56:16;96104.69;;;22.45;69.10
4598;BME280;62772;48.646;8.906;2022-08-19T18:01:17;96103.91;;;22.37;69.32
4598;BME280;62772;48.646;8.906;2022-08-19T18:06:20;96107.34;;;22.63;68.11
4598;BME280;62772;48.646;8.906;2022-08-19T18:11:22;96110.88;;;22.45;67.66
4598;BME280;62772;48.646;8.906;2022-08-19T18:16:23;96112.03;;;22.52;68.82
4598;BME280;62772;48.646;8.906;2022-08-19T18:21:26;96126.06;;;22.10;64.53
4598;BME280;62772;48.646;8.906;2022-08-19T18:26:31;96127.22;;;21.81;66.83
4598;BME280;62772;48.646;8.906;2022-08-19T18:31:31;96147.03;;;21.60;68.24
4598;BME280;62772;48.646;8.906;2022-08-19T18:36:35;96151.50;;;21.09;70.89
4598;BME280;62772;48.646;8.906;2022-08-19T18:41:36;96155.03;;;21.16;72.16
4598;BME280;62772;48.646;8.906;2022-08-19T18:46:55;96162.47;;;21.30;72.15
4598;BME280;62772;48.646;8.906;2022-08-19T18:52:17;96158.97;;;21.33;72.20
4598;BME280;62772;48.646;8.906;2022-08-19T18:57:18;96162.47;;;21.30;72.04
4598;BME280;62772;48.646;8.906;2022-08-19T19:02:25;96165.91;;;21.24;71.51
4598;BME280;62772;48.646;8.906;2022-08-19T19:07:29;96170.06;;;20.96;72.82
4598;BME280;62772;48.646;8.906;2022-08-19T19:12:29;96178.66;;;21.01;73.20
4598;BME280;62772;48.646;8.906;2022-08-19T19:17:30;96182.88;;;20.95;73.31
4598;BME280;62772;48.646;8.906;2022-08-19T19:22:33;96184.72;;;20.77;74.80
4598;BME280;62772;48.646;8.906;2022-08-19T19:27:34;96183.66;;;20.99;75.88
4598;BME280;62772;48.646;8.906;2022-08-19T19:32:35;96195.88;;;20.64;75.70
4598;BME280;62772;48.646;8.906;2022-08-19T19:37:40;96194.38;;;20.71;76.13
4598;BME280;62772;48.646;8.906;2022-08-19T19:42:42;96194.13;;;20.97;75.59
4598;BME280;62772;48.646;8.906;2022-08-19T19:47:44;96196.59;;;20.61;76.65
4598;BME280;62772;48.646;8.906;2022-08-19T19:52:49;96204.63;;;20.43;76.99
4598;BME280;62772;48.646;8.906;2022-08-19T19:57:51;96204.06;;;20.72;75.54
4598;BME280;62772;48.646;8.906;2022-08-19T20:02:52;96209.94;;;20.81;74.75
4598;BME280;62772;48.646;8.906;2022-08-19T20:07:57;96217.72;;;20.82;74.29
4598;BME280;62772;48.646;8.906;2022-08-19T20:13:17;96220.81;;;20.81;73.86
4598;BME280;62772;48.646;8.906;2022-08-19T20:18:17;96221.19;;;20.79;73.77
4598;BME280;62772;48.646;8.906;2022-08-19T20:23:22;96230.53;;;20.89;74.44
4598;BME280;62772;48.646;8.906;2022-08-19T20:28:22;96233.63;;;20.84;72.43
4598;BME280;62772;48.646;8.906;2022-08-19T20:33:23;96234.03;;;20.93;71.56
4598;BME280;62772;48.646;8.906;2022-08-19T20:38:27;96227.38;;;20.80;70.97
4598;BME280;62772;48.646;8.906;2022-08-19T20:43:27;96231.59;;;20.74;71.07
4598;BME280;62772;48.646;8.906;2022-08-19T20:48:29;96228.06;;;20.66;71.03
4598;BME280;62772;48.646;8.906;2022-08-19T20:53:33;96234.06;;;20.41;71.93
4598;BME280;62772;48.646;8.906;2022-08-19T20:58:34;96228.72;;;20.52;73.04
4598;BME280;62772;48.646;8.906;2022-08-19T21:03:38;96230.06;;;20.24;73.83
4598;BME280;62772;48.646;8.906;2022-08-19T21:08:43;96233.28;;;20.41;74.65
4598;BME280;62772;48.646;8.906;2022-08-19T21:13:44;96231.34;;;20.38;75.34
4598;BME280;62772;48.646;8.906;2022-08-19T21:18:45;96232.03;;;20.27;76.68
4598;BME280;62772;48.646;8.906;2022-08-19T21:23:48;96230.56;;;19.92;79.29
4598;BME280;62772;48.646;8.906;2022-08-19T21:28:49;96228.84;;;19.77;81.52
4598;BME280;62772;48.646;8.906;2022-08-19T21:33:50;96237.28;;;19.72;82.99
4598;BME280;62772;48.646;8.906;2022-08-19T21:38:53;96240.41;;;19.74;83.89
4598;BME280;62772;48.646;8.906;2022-08-19T21:43:54;96239.03;;;19.87;83.04
4598;BME280;62772;48.646;8.906;2022-08-19T21:48:55;96238.56;;;19.48;84.96
4598;BME280;62772;48.646;8.906;2022-08-19T21:53:58;96241.81;;;19.61;84.39
4598;BME280;62772;48.646;8.906;2022-08-19T21:58:59;96246.88;;;19.62;84.06
4598;BME280;62772;48.646;8.906;2022-08-19T22:03:59;96257.66;;;19.58;84.47
4598;BME280;62772;48.646;8.906;2022-08-19T22:09:03;96263.47;;;19.27;86.14
4598;BME280;62772;48.646;8.906;2022-08-19T22:14:04;96261.84;;;19.18;86.13
4598;BME280;62772;48.646;8.906;2022-08-19T22:19:05;96269.06;;;19.11;87.12
4598;BME280;62772;48.646;8.906;2022-08-19T22:24:08;96274.56;;;19.18;86.89
4598;BME280;62772;48.646;8.906;2022-08-19T22:29:09;96264.78;;;19.10;87.09
4598;BME280;62772;48.646;8.906;2022-08-19T22:34:12;96265.47;;;19.03;88.14
4598;BME280;62772;48.646;8.906;2022-08-19T22:39:16;96273.25;;;19.05;88.30
4598;BME280;62772;48.646;8.906;2022-08-19T22:44:17;96279.81;;;19.07;87.99
4598;BME280;62772;48.646;8.906;2022-08-19T22:49:18;96277.28;;;18.91;89.34
4598;BME280;62772;48.646;8.906;2022-08-19T22:54:21;96280.69;;;18.84;89.20
4598;BME280;62772;48.646;8.906;2022-08-19T22:59:22;96277.41;;;18.98;89.32
4598;BME280;62772;48.646;8.906;2022-08-19T23:04:23;96278.66;;;18.55;90.95
4598;BME280;62772;48.646;8.906;2022-08-19T23:09:26;96286.03;;;18.58;91.25
4598;BME280;62772;48.646;8.906;2022-08-19T23:14:27;96274.41;;;18.30;92.75
4598;BME280;62772;48.646;8.906;2022-08-19T23:19:28;96274.63;;;18.45;92.42
4598;BME280;62772;48.646;8.906;2022-08-19T23:24:32;96268.41;;;18.41;92.57
4598;BME280;62772;48.646;8.906;2022-08-19T23:29:32;96266.47;;;18.18;94.18
4598;BME280;62772;48.646;8.906;2022-08-19T23:34:54;96265.63;;;18.14;94.42
4598;BME280;62772;48.646;8.906;2022-08-19T23:39:57;96266.06;;;18.16;95.13
4598;BME280;62772;48.646;8.906;2022-08-19T23:44:59;96274.41;;;18.07;95.29
4598;BME280;62772;48.646;8.906;2022-08-19T23:50:01;96282.03;;;17.82;97.20
4598;BME280;62772;48.646;8.906;2022-08-19T23:55:09;96268.91;;;17.61;99.13
